createdAt,value
2022-11-05T00:02:45.332Z,101355.16
2022-11-05T00:05:31.663Z,101360.31
2022-11-05T00:08:20.645Z,101362.41
2022-11-05T00:10:47.892Z,101358.16
2022-11-05T00:13:34.281Z,101360.75
2022-11-05T00:16:39.883Z,101370.09
2022-11-05T00:19:07.329Z,101360.03
2022-11-05T00:21:55.202Z,101362.22
2022-11-05T00:24:41.712Z,101358.16
2022-11-05T00:27:09.263Z,101362.84
2022-11-05T00:29:36.606Z,101369.31
2022-11-05T00:32:04.050Z,101368.03
2022-11-05T00:34:31.841Z,101367.88
2022-11-05T00:36:59.079Z,101364.59
2022-11-05T00:39:26.279Z,101359.09
2022-11-05T00:42:12.266Z,101357.34
2022-11-05T00:44:58.294Z,101367.44
2022-11-05T00:47:44.407Z,101380.91
2022-11-05T00:50:11.806Z,101376.00
2022-11-05T00:52:57.946Z,101384.44
2022-11-05T00:55:43.095Z,101377.81
2022-11-05T00:58:11.919Z,101369.41
2022-11-05T01:00:41.177Z,101371.72
2022-11-05T01:03:14.030Z,101372.19
2022-11-05T01:05:50.369Z,101358.97
2022-11-05T01:08:19.342Z,101366.50
2022-11-05T01:10:49.850Z,101364.94
2022-11-05T01:13:19.737Z,101360.41
2022-11-05T01:15:47.205Z,101362.91
2022-11-05T01:18:14.471Z,101362.19
2022-11-05T01:20:41.764Z,101362.38
2022-11-05T01:23:13.448Z,101374.28
2022-11-05T01:25:42.429Z,101369.06
2022-11-05T01:28:10.261Z,101364.72
2022-11-05T01:30:38.125Z,101362.84
2022-11-05T01:33:05.767Z,101356.81
2022-11-05T01:35:33.059Z,101361.13
2022-11-05T01:38:00.394Z,101367.44
2022-11-05T01:40:28.095Z,101368.09
2022-11-05T01:42:55.369Z,101371.38
2022-11-05T01:45:27.334Z,101364.34
2022-11-05T01:48:16.334Z,101366.03
2022-11-05T01:50:56.862Z,101367.00
2022-11-05T01:53:30.980Z,101374.25
2022-11-05T01:56:23.868Z,101366.53
2022-11-05T01:58:53.924Z,101372.22
2022-11-05T02:01:21.279Z,101379.53
2022-11-05T02:03:51.075Z,101374.50
2022-11-05T02:06:19.133Z,101378.47
2022-11-05T02:09:03.652Z,101379.06
2022-11-05T02:11:31.387Z,101374.47
2022-11-05T02:13:58.892Z,101375.41
2022-11-05T02:16:32.104Z,101373.84
2022-11-05T02:19:13.007Z,101366.53
2022-11-05T02:21:52.538Z,101364.97
2022-11-05T02:24:41.542Z,101372.75
2022-11-05T02:27:46.162Z,101367.47
2022-11-05T02:30:34.822Z,101371.09
2022-11-05T02:33:10.777Z,101376.66
2022-11-05T02:35:47.158Z,101383.13
2022-11-05T02:38:48.567Z,101384.44
2022-11-05T02:41:25.693Z,101379.25
2022-11-05T02:44:05.005Z,101387.97
2022-11-05T02:46:54.148Z,101380.72
2022-11-05T02:49:25.674Z,101375.72
2022-11-05T02:51:58.258Z,101383.31
2022-11-05T02:54:44.053Z,101374.03
2022-11-05T02:57:11.286Z,101374.44
2022-11-05T02:59:38.560Z,101368.97
2022-11-05T03:02:06.115Z,101360.28
2022-11-05T03:04:33.520Z,101366.50
2022-11-05T03:07:19.042Z,101359.81
2022-11-05T03:10:28.373Z,101362.59
2022-11-05T03:13:04.821Z,101356.81
2022-11-05T03:15:42.240Z,101366.44
2022-11-05T03:18:18.625Z,101366.72
2022-11-05T03:21:08.856Z,101359.00
2022-11-05T03:23:48.202Z,101357.88
2022-11-05T03:26:20.656Z,101357.59
2022-11-05T03:28:52.040Z,101355.81
2022-11-05T03:31:20.425Z,101355.63
2022-11-05T03:33:52.240Z,101354.00
2022-11-05T03:36:32.315Z,101355.97
2022-11-05T03:39:03.598Z,101364.00
2022-11-05T03:41:33.202Z,101362.00
2022-11-05T03:44:04.137Z,101357.81
2022-11-05T03:46:38.746Z,101354.53
2022-11-05T03:49:07.733Z,101347.78
2022-11-05T03:51:41.913Z,101355.16
2022-11-05T03:54:09.610Z,101352.38
2022-11-05T03:56:45.276Z,101354.16
2022-11-05T03:59:12.743Z,101349.22
2022-11-05T04:01:41.838Z,101350.84
2022-11-05T04:04:09.541Z,101349.63
2022-11-05T04:06:55.931Z,101353.88
2022-11-05T04:09:41.987Z,101357.50
2022-11-05T04:12:31.156Z,101350.66
2022-11-05T04:14:58.346Z,101349.44
2022-11-05T04:17:25.556Z,101348.59
2022-11-05T04:20:11.054Z,101356.56
2022-11-05T04:22:56.943Z,101352.28
2022-11-05T04:25:24.319Z,101357.97
2022-11-05T04:27:51.935Z,101364.59
2022-11-05T04:30:19.775Z,101366.34
2022-11-05T04:33:15.461Z,101373.06
2022-11-05T04:35:45.218Z,101372.38
2022-11-05T04:38:15.192Z,101377.13
2022-11-05T04:40:43.161Z,101370.44
2022-11-05T04:43:15.168Z,101371.09
2022-11-05T04:45:43.494Z,101380.31
2022-11-05T04:48:11.148Z,101373.66
2022-11-05T04:50:38.492Z,101369.44
2022-11-05T04:53:05.712Z,101369.41
2022-11-05T04:55:33.471Z,101371.09
2022-11-05T04:58:00.720Z,101377.63
2022-11-05T05:00:28.107Z,101375.00
2022-11-05T05:02:55.362Z,101375.88
2022-11-05T05:05:23.089Z,101388.16
2022-11-05T05:07:50.337Z,101385.03
2022-11-05T05:10:17.637Z,101384.63
2022-11-05T05:12:44.885Z,101390.81
2022-11-05T05:15:12.134Z,101389.16
2022-11-05T05:17:39.373Z,101398.47
2022-11-05T05:20:25.988Z,101396.56
2022-11-05T05:22:56.392Z,101407.88
2022-11-05T05:25:23.743Z,101398.44
2022-11-05T05:27:51.092Z,101403.81
2022-11-05T05:30:18.556Z,101402.66
2022-11-05T05:32:45.732Z,101401.41
2022-11-05T05:35:13.115Z,101397.69
2022-11-05T05:37:40.375Z,101399.44
2022-11-05T05:40:08.996Z,101398.16
2022-11-05T05:42:41.802Z,101393.50
2022-11-05T05:45:11.456Z,101395.91
2022-11-05T05:47:38.765Z,101395.91
2022-11-05T05:50:06.264Z,101401.34
2022-11-05T05:52:33.550Z,101398.78
2022-11-05T05:55:00.723Z,101406.38
2022-11-05T05:57:28.464Z,101395.91
2022-11-05T05:59:55.672Z,101389.03
2022-11-05T06:02:23.178Z,101394.34
2022-11-05T06:04:50.543Z,101402.44
2022-11-05T06:07:17.726Z,101411.59
2022-11-05T06:09:45.049Z,101408.75
2022-11-05T06:12:12.491Z,101402.97
2022-11-05T06:14:40.086Z,101407.63
2022-11-05T06:17:07.668Z,101408.41
2022-11-05T06:19:34.929Z,101412.38
2022-11-05T06:22:02.137Z,101415.22
2022-11-05T06:24:29.483Z,101417.00
2022-11-05T06:26:56.748Z,101417.03
2022-11-05T06:29:24.020Z,101422.50
2022-11-05T06:31:51.254Z,101422.28
2022-11-05T06:34:18.440Z,101426.88
2022-11-05T06:36:45.666Z,101430.47
2022-11-05T06:39:12.899Z,101431.00
2022-11-05T06:42:03.958Z,101417.81
2022-11-05T06:44:27.935Z,101421.56
2022-11-05T06:46:55.247Z,101420.25
2022-11-05T06:49:24.687Z,101428.00
2022-11-05T06:51:52.531Z,101427.28
2022-11-05T06:54:19.942Z,101431.19
2022-11-05T06:56:47.321Z,101435.00
2022-11-05T06:59:14.827Z,101428.44
2022-11-05T07:01:42.169Z,101422.56
2022-11-05T07:04:12.085Z,101431.66
2022-11-05T07:06:39.437Z,101440.47
2022-11-05T07:09:06.603Z,101440.41
2022-11-05T07:11:34.124Z,101446.31
2022-11-05T07:14:01.369Z,101443.88
2022-11-05T07:16:28.705Z,101438.97
2022-11-05T07:18:56.076Z,101445.91
2022-11-05T07:21:23.345Z,101441.44
2022-11-05T07:23:50.648Z,101446.31
2022-11-05T07:26:17.814Z,101441.91
2022-11-05T07:28:45.455Z,101442.03
2022-11-05T07:31:14.151Z,101447.78
2022-11-05T07:33:41.380Z,101447.22
2022-11-05T07:36:08.975Z,101456.75
2022-11-05T07:38:36.243Z,101466.09
2022-11-05T07:41:03.822Z,101469.06
2022-11-05T07:43:31.268Z,101457.75
2022-11-05T07:45:58.527Z,101467.53
2022-11-05T07:48:25.734Z,101469.03
2022-11-05T07:50:55.882Z,101465.94
2022-11-05T07:53:25.603Z,101472.06
2022-11-05T07:55:52.948Z,101464.97
2022-11-05T07:58:20.275Z,101461.50
2022-11-05T08:00:47.893Z,101465.47
2022-11-05T08:03:17.491Z,101464.03
2022-11-05T08:05:47.121Z,101469.38
2022-11-05T08:08:16.983Z,101467.63
2022-11-05T08:10:44.729Z,101470.13
2022-11-05T08:13:13.417Z,101463.88
2022-11-05T08:15:42.656Z,101467.53
2022-11-05T08:18:15.462Z,101470.22
2022-11-05T08:20:44.100Z,101463.75
2022-11-05T08:23:11.687Z,101471.56
2022-11-05T08:25:39.892Z,101469.16
2022-11-05T08:28:10.915Z,101473.44
2022-11-05T08:30:38.535Z,101463.53
2022-11-05T08:33:09.060Z,101476.03
2022-11-05T08:35:37.425Z,101482.00
2022-11-05T08:38:06.416Z,101468.91
2022-11-05T08:40:35.220Z,101464.78
2022-11-05T08:43:04.115Z,101463.47
2022-11-05T08:45:31.756Z,101477.16
2022-11-05T08:48:03.775Z,101472.63
2022-11-05T08:50:31.880Z,101474.09
2022-11-05T08:52:59.452Z,101474.69
2022-11-05T08:55:27.252Z,101476.75
2022-11-05T08:57:58.191Z,101489.56
2022-11-05T09:00:26.896Z,101497.41
2022-11-05T09:02:54.447Z,101497.75
2022-11-05T09:05:21.648Z,101494.59
2022-11-05T09:07:48.875Z,101492.56
2022-11-05T09:10:16.154Z,101490.84
2022-11-05T09:12:46.376Z,101492.06
2022-11-05T09:15:13.832Z,101487.66
2022-11-05T09:17:41.233Z,101480.09
2022-11-05T09:20:10.328Z,101478.34
2022-11-05T09:22:42.166Z,101463.91
2022-11-05T09:25:10.828Z,101462.22
2022-11-05T09:27:38.214Z,101461.09
2022-11-05T09:30:05.877Z,101455.56
2022-11-05T09:32:33.498Z,101460.78
2022-11-05T09:35:01.272Z,101459.53
2022-11-05T09:37:29.247Z,101463.88
2022-11-05T09:39:56.492Z,101465.34
2022-11-05T09:42:31.412Z,101454.88
2022-11-05T09:45:04.544Z,101460.16
2022-11-05T09:47:45.479Z,101466.16
2022-11-05T09:50:16.048Z,101466.41
2022-11-05T09:52:43.665Z,101467.06
2022-11-05T09:55:36.061Z,101470.38
2022-11-05T09:58:09.835Z,101463.06
2022-11-05T10:00:37.072Z,101467.97
2022-11-05T10:03:07.007Z,101467.91
2022-11-05T10:05:35.075Z,101459.88
2022-11-05T10:08:10.638Z,101471.75
2022-11-05T10:10:54.333Z,101473.06
2022-11-05T10:13:35.410Z,101463.00
2022-11-05T10:16:07.532Z,101464.59
2022-11-05T10:18:37.064Z,101461.66
2022-11-05T10:21:04.614Z,101453.44
2022-11-05T10:23:32.290Z,101460.88
2022-11-05T10:26:04.056Z,101455.75
2022-11-05T10:28:33.309Z,101459.38
2022-11-05T10:31:04.500Z,101453.88
2022-11-05T10:33:40.192Z,101468.13
2022-11-05T10:36:11.837Z,101465.88
2022-11-05T10:38:39.031Z,101468.94
2022-11-05T10:41:15.453Z,101466.03
2022-11-05T10:43:48.653Z,101465.94
2022-11-05T10:46:30.182Z,101468.53
2022-11-05T10:49:06.663Z,101475.16
2022-11-05T10:51:34.116Z,101468.41
2022-11-05T10:54:05.918Z,101481.47
2022-11-05T10:56:36.866Z,101471.03
2022-11-05T10:59:11.902Z,101475.41
2022-11-05T11:01:39.543Z,101460.88
2022-11-05T11:04:12.269Z,101467.44
2022-11-05T11:06:44.822Z,101470.06
2022-11-05T11:09:31.173Z,101460.44
2022-11-05T11:12:14.932Z,101456.66
2022-11-05T11:14:42.282Z,101458.13
2022-11-05T11:17:27.730Z,101462.38
2022-11-05T11:20:22.041Z,101462.72
2022-11-05T11:22:59.595Z,101452.41
2022-11-05T11:25:30.863Z,101452.56
2022-11-05T11:28:03.196Z,101450.59
2022-11-05T11:30:32.076Z,101449.34
2022-11-05T11:33:06.930Z,101451.81
2022-11-05T11:35:36.959Z,101442.69
2022-11-05T11:38:05.195Z,101438.44
2022-11-05T11:40:37.418Z,101446.78
2022-11-05T11:43:14.436Z,101441.88
2022-11-05T11:45:50.108Z,101429.31
2022-11-05T11:48:20.068Z,101428.00
2022-11-05T11:50:48.573Z,101433.25
2022-11-05T11:53:20.036Z,101430.13
2022-11-05T11:56:05.424Z,101435.84
2022-11-05T11:58:40.593Z,101433.41
2022-11-05T12:01:39.013Z,101436.19
2022-11-05T12:04:20.460Z,101440.91
2022-11-05T12:06:55.691Z,101432.56
2022-11-05T12:09:47.908Z,101428.34
2022-11-05T12:12:16.746Z,101424.72
2022-11-05T12:14:55.386Z,101421.31
2022-11-05T12:17:41.515Z,101417.72
2022-11-05T12:20:20.625Z,101416.75
2022-11-05T12:23:24.963Z,101406.97
2022-11-05T12:26:16.689Z,101410.22
2022-11-05T12:29:18.300Z,101396.50
2022-11-05T12:32:08.262Z,101406.28
2022-11-05T12:35:04.700Z,101407.75
2022-11-05T12:38:13.629Z,101397.63
2022-11-05T12:40:56.833Z,101389.28
2022-11-05T12:44:00.839Z,101386.84
2022-11-05T12:46:48.870Z,101377.06
2022-11-05T12:49:37.912Z,101377.88
2022-11-05T12:52:07.777Z,101370.50
2022-11-05T12:55:03.113Z,101368.06
2022-11-05T12:57:32.675Z,101368.09
2022-11-05T13:00:22.193Z,101371.03
2022-11-05T13:02:49.468Z,101376.59
2022-11-05T13:05:45.302Z,101368.94
2022-11-05T13:08:16.492Z,101366.00
2022-11-05T13:10:44.886Z,101367.28
2022-11-05T13:13:21.164Z,101356.31
2022-11-05T13:15:54.409Z,101354.22
2022-11-05T13:18:27.395Z,101354.91
2022-11-05T13:20:56.604Z,101361.56
2022-11-05T13:23:37.993Z,101355.06
2022-11-05T13:26:57.877Z,101358.97
2022-11-05T13:29:46.921Z,101373.16
2022-11-05T13:32:35.735Z,101374.16
2022-11-05T13:35:05.587Z,101372.44
2022-11-05T13:37:57.491Z,101374.25
2022-11-05T13:40:44.527Z,101370.53
2022-11-05T13:43:33.111Z,101369.34
2022-11-05T13:46:06.409Z,101367.28
2022-11-05T13:48:44.962Z,101373.19
2022-11-05T13:51:37.656Z,101369.50
2022-11-05T13:54:33.111Z,101361.78
2022-11-05T13:57:09.605Z,101360.50
2022-11-05T13:59:39.633Z,101359.34
2022-11-05T14:02:39.204Z,101364.84
2022-11-05T14:05:08.536Z,101372.06
2022-11-05T14:07:38.549Z,101349.53
2022-11-05T14:10:09.359Z,101355.72
2022-11-05T14:12:39.052Z,101350.22
2022-11-05T14:15:18.886Z,101343.13
2022-11-05T14:17:58.442Z,101352.59
2022-11-05T14:20:32.016Z,101352.91
2022-11-05T14:23:25.956Z,101356.19
2022-11-05T14:25:55.788Z,101350.63
2022-11-05T14:28:35.052Z,101370.03
2022-11-05T14:31:03.699Z,101370.38
2022-11-05T14:33:35.097Z,101371.53
2022-11-05T14:36:20.744Z,101372.38
2022-11-05T14:38:52.988Z,101373.91
2022-11-05T14:41:21.178Z,101370.75
2022-11-05T14:43:57.332Z,101372.72
2022-11-05T14:46:24.744Z,101366.25
2022-11-05T14:48:55.205Z,101351.00
2022-11-05T14:51:26.111Z,101346.13
2022-11-05T14:54:05.560Z,101327.38
2022-11-05T14:57:02.602Z,101331.06
2022-11-05T14:59:31.869Z,101332.47
2022-11-05T15:02:09.899Z,101344.91
2022-11-05T15:04:42.730Z,101333.81
2022-11-05T15:07:09.925Z,101334.66
2022-11-05T15:10:10.621Z,101320.50
2022-11-05T15:12:51.587Z,101319.06
2022-11-05T15:15:24.762Z,101322.16
2022-11-05T15:17:58.370Z,101336.59
2022-11-05T15:20:37.287Z,101341.50
2022-11-05T15:23:11.247Z,101342.50
2022-11-05T15:26:16.440Z,101345.00
2022-11-05T15:28:46.845Z,101339.56
2022-11-05T15:31:14.070Z,101331.59
2022-11-05T15:33:42.789Z,101342.34
2022-11-05T15:36:26.419Z,101346.38
2022-11-05T15:39:22.858Z,101357.22
2022-11-05T15:41:41.667Z,101349.00
2022-11-05T15:44:24.236Z,101344.94
2022-11-05T15:47:25.396Z,101342.34
2022-11-05T15:50:01.965Z,101339.28
2022-11-05T15:52:36.454Z,101348.13
2022-11-05T15:55:13.029Z,101348.47
2022-11-05T15:57:58.200Z,101341.06
2022-11-05T16:00:29.669Z,101343.00
2022-11-05T16:03:45.070Z,101323.31
2022-11-05T16:06:52.164Z,101328.31
2022-11-05T16:09:22.182Z,101321.06
2022-11-05T16:11:54.341Z,101326.47
2022-11-05T16:14:22.139Z,101343.66
2022-11-05T16:16:53.233Z,101349.50
2022-11-05T16:19:40.571Z,101344.47
2022-11-05T16:22:15.788Z,101348.91
2022-11-05T16:24:43.772Z,101335.72
2022-11-05T16:27:19.877Z,101340.56
2022-11-05T16:29:53.086Z,101333.38
2022-11-05T16:32:31.080Z,101335.31
2022-11-05T16:35:00.830Z,101338.06
2022-11-05T16:37:38.131Z,101330.66
2022-11-05T16:40:25.589Z,101330.78
2022-11-05T16:42:53.959Z,101326.28
2022-11-05T16:45:25.445Z,101327.28
2022-11-05T16:47:52.777Z,101317.38
2022-11-05T16:50:30.451Z,101318.53
2022-11-05T16:52:58.383Z,101311.53
2022-11-05T16:55:25.781Z,101315.41
2022-11-05T16:57:54.339Z,101311.16
2022-11-05T17:00:22.537Z,101320.47
2022-11-05T17:02:50.408Z,101310.78
2022-11-05T17:05:24.245Z,101309.66
2022-11-05T17:07:52.134Z,101309.03
2022-11-05T17:10:20.696Z,101312.53
2022-11-05T17:12:48.426Z,101311.72
2022-11-05T17:15:24.154Z,101309.28
2022-11-05T17:17:52.868Z,101313.91
2022-11-05T17:20:49.996Z,101310.84
2022-11-05T17:23:22.633Z,101303.13
2022-11-05T17:25:52.336Z,101302.81
2022-11-05T17:28:20.276Z,101308.47
2022-11-05T17:30:52.876Z,101316.47
2022-11-05T17:33:22.749Z,101319.19
2022-11-05T17:35:50.631Z,101325.50
2022-11-05T17:38:18.225Z,101326.03
2022-11-05T17:40:45.614Z,101332.63
2022-11-05T17:43:13.520Z,101338.88
2022-11-05T17:45:42.801Z,101329.34
2022-11-05T17:48:10.561Z,101321.94
2022-11-05T17:50:45.811Z,101320.22
2022-11-05T17:53:14.144Z,101333.28
2022-11-05T17:55:42.710Z,101335.13
2022-11-05T17:58:10.632Z,101338.34
2022-11-05T18:00:38.828Z,101336.28
2022-11-05T18:03:06.095Z,101343.69
2022-11-05T18:05:34.342Z,101339.94
2022-11-05T18:08:01.842Z,101336.88
2022-11-05T18:10:29.230Z,101326.63
2022-11-05T18:12:56.608Z,101323.03
2022-11-05T18:15:23.891Z,101320.44
2022-11-05T18:17:51.275Z,101323.06
2022-11-05T18:20:19.718Z,101322.03
2022-11-05T18:22:50.001Z,101324.84
2022-11-05T18:25:17.510Z,101329.88
2022-11-05T18:27:45.104Z,101330.06
2022-11-05T18:30:15.522Z,101350.78
2022-11-05T18:32:44.238Z,101354.56
2022-11-05T18:35:13.405Z,101352.16
2022-11-05T18:37:50.428Z,101362.78
2022-11-05T18:40:17.722Z,101352.31
2022-11-05T18:42:45.035Z,101342.47
2022-11-05T18:45:12.379Z,101343.56
2022-11-05T18:47:39.863Z,101328.38
2022-11-05T18:50:09.389Z,101322.59
2022-11-05T18:52:39.475Z,101299.53
2022-11-05T18:55:07.556Z,101315.78
2022-11-05T18:57:35.397Z,101321.31
2022-11-05T19:00:05.090Z,101310.59
2022-11-05T19:02:32.518Z,101297.78
2022-11-05T19:05:27.465Z,101304.78
2022-11-05T19:07:47.360Z,101293.03
2022-11-05T19:10:15.047Z,101306.13
2022-11-05T19:12:42.405Z,101304.94
2022-11-05T19:15:10.268Z,101307.50
2022-11-05T19:17:37.607Z,101306.25
2022-11-05T19:20:05.658Z,101302.94
2022-11-05T19:22:33.321Z,101290.22
2022-11-05T19:25:00.608Z,101291.56
2022-11-05T19:27:27.875Z,101295.34
2022-11-05T19:29:55.136Z,101310.41
2022-11-05T19:32:22.334Z,101312.91
2022-11-05T19:34:49.846Z,101291.63
2022-11-05T19:37:17.707Z,101293.53
2022-11-05T19:39:45.316Z,101281.88
2022-11-05T19:42:12.967Z,101266.47
2022-11-05T19:44:40.866Z,101267.44
2022-11-05T19:47:08.132Z,101271.88
2022-11-05T19:49:35.360Z,101284.69
2022-11-05T19:52:02.681Z,101285.56
2022-11-05T19:54:30.120Z,101288.66
2022-11-05T19:56:57.535Z,101295.34
2022-11-05T19:59:24.901Z,101295.22
2022-11-05T20:01:52.359Z,101282.88
2022-11-05T20:04:20.167Z,101286.22
2022-11-05T20:06:47.367Z,101289.75
2022-11-05T20:09:23.279Z,101285.13
2022-11-05T20:11:53.807Z,101280.81
2022-11-05T20:14:21.510Z,101275.84
2022-11-05T20:16:49.384Z,101268.03
2022-11-05T20:19:19.240Z,101266.63
2022-11-05T20:21:46.727Z,101262.50
2022-11-05T20:24:22.288Z,101266.16
2022-11-05T20:26:53.651Z,101267.31
2022-11-05T20:29:21.431Z,101268.44
2022-11-05T20:31:49.262Z,101270.13
2022-11-05T20:34:16.551Z,101253.28
2022-11-05T20:36:43.808Z,101249.59
2022-11-05T20:39:11.982Z,101261.47
2022-11-05T20:41:39.456Z,101260.38
2022-11-05T20:44:06.871Z,101257.31
2022-11-05T20:46:34.183Z,101270.03
2022-11-05T20:49:01.403Z,101274.97
2022-11-05T20:51:29.052Z,101268.56
2022-11-05T20:53:58.532Z,101254.59
2022-11-05T20:56:29.422Z,101253.66
2022-11-05T20:58:58.486Z,101259.44
2022-11-05T21:01:29.756Z,101252.16
2022-11-05T21:03:57.222Z,101249.91
2022-11-05T21:06:24.528Z,101255.03
2022-11-05T21:08:52.334Z,101255.25
2022-11-05T21:11:20.614Z,101256.63
2022-11-05T21:13:48.516Z,101252.56
2022-11-05T21:16:18.692Z,101252.56
2022-11-05T21:18:46.912Z,101253.03
2022-11-05T21:21:19.729Z,101251.09
2022-11-05T21:23:47.659Z,101249.31
2022-11-05T21:26:16.803Z,101242.97
2022-11-05T21:28:44.149Z,101233.31
2022-11-05T21:31:11.703Z,101225.28
2022-11-05T21:33:39.317Z,101213.97
2022-11-05T21:36:08.874Z,101217.53
2022-11-05T21:38:37.793Z,101218.22
2022-11-05T21:41:05.465Z,101225.47
2022-11-05T21:43:33.086Z,101231.00
2022-11-05T21:46:02.030Z,101229.78
2022-11-05T21:48:30.318Z,101227.84
2022-11-05T21:51:16.761Z,101232.25
2022-11-05T21:54:02.629Z,101234.13
2022-11-05T21:56:48.502Z,101242.00
2022-11-05T21:59:36.633Z,101227.22
2022-11-05T22:02:04.934Z,101226.78
2022-11-05T22:04:34.542Z,101221.81
2022-11-05T22:07:02.402Z,101228.78
2022-11-05T22:09:30.058Z,101219.56
2022-11-05T22:11:58.303Z,101212.44
2022-11-05T22:14:26.374Z,101212.72
2022-11-05T22:16:54.044Z,101213.66
2022-11-05T22:19:22.836Z,101211.91
2022-11-05T22:21:50.332Z,101198.88
2022-11-05T22:24:25.764Z,101198.47
2022-11-05T22:26:53.481Z,101193.94
2022-11-05T22:29:20.752Z,101196.66
2022-11-05T22:31:48.053Z,101195.16
2022-11-05T22:34:15.549Z,101193.81
2022-11-05T22:36:42.845Z,101203.53
2022-11-05T22:39:11.398Z,101205.25
2022-11-05T22:41:38.894Z,101197.69
2022-11-05T22:44:06.309Z,101202.28
2022-11-05T22:46:33.786Z,101202.97
2022-11-05T22:49:01.175Z,101184.09
2022-11-05T22:51:30.816Z,101190.31
2022-11-05T22:53:59.017Z,101189.34
2022-11-05T22:56:29.318Z,101182.47
2022-11-05T22:58:57.121Z,101185.22
2022-11-05T23:01:25.275Z,101176.03
2022-11-05T23:03:54.013Z,101164.84
2022-11-05T23:06:42.344Z,101155.94
2022-11-05T23:09:43.764Z,101151.69
2022-11-05T23:12:25.061Z,101149.88
2022-11-05T23:14:53.467Z,101150.78
2022-11-05T23:17:39.366Z,101151.72
2022-11-05T23:20:28.838Z,101157.84
2022-11-05T23:23:15.984Z,101166.59
2022-11-05T23:25:43.544Z,101161.63
2022-11-05T23:28:11.964Z,101153.63
2022-11-05T23:31:02.302Z,101155.66
2022-11-05T23:33:33.882Z,101146.84
2022-11-05T23:36:20.121Z,101158.44
2022-11-05T23:38:47.491Z,101155.06
2022-11-05T23:41:33.357Z,101140.72
2022-11-05T23:44:19.253Z,101140.38
2022-11-05T23:47:22.020Z,101144.47
2022-11-05T23:49:50.417Z,101144.44
2022-11-05T23:52:17.758Z,101135.25
2022-11-05T23:54:44.981Z,101141.00
2022-11-05T23:57:12.260Z,101126.16
2022-11-05T23:59:39.489Z,101119.38
